Aérodrome :
LOGIN :

S'inscrire | Disclaimer

   EN    FR    IT 

 










Légende :    VFR   VFR Marginal   IFR   IFR Intensif   IFR Très Intensif
Visi : 
Plafond : 
>= 8 km
>= 3000ft
5 à 8 km
1000 à 3000 ft
1500m à 5 km
500 à 1000 ft
800 à 1500m
200 à 500 ft
< 800m
< 200 ft
Symboles :   Orages  Brouillard  Fortes neiges  Fortes précipitations  Vent > 20 kt
SIGMETs :   Divers  Orages  Givrage  Turbulence  Onde Orograph.  Cendres Volcan.






- Altitude de l'aérodrome : 172 ft
- Code IATA : ODS


UKOO - Odesa

DERNIER METAR :
  • 101800Z 25001MPS CAVOK 26/09 Q1013 R16/090060 NOSIG

METARs EXPIRÉS :
  • 101730Z 25002MPS CAVOK 27/10 Q1012 R16/090060 NOSIG
  • 101700Z 23002MPS CAVOK 28/10 Q1012 R16/090060 NOSIG
  • 101630Z 22003MPS CAVOK 29/10 Q1012 R16/090060 NOSIG
  • 101600Z 23003MPS 200V270 CAVOK 30/10 Q1012 R16/090060 NOSIG
  • 101530Z 23003MPS 200V270 CAVOK 30/10 Q1012 R34/090060 NOSIG

TAF TAF UKOO
Valide du 10 à 18h jusqu'au 11 à 18h UTC


101709Z 1018/1118 02003MPS 6000 SCT015CB TX30/1112Z TN22/1102Z
PROB40
TEMPO 1018/1105 -TSRA
TEMPO 1109/1118 19003MPS



MET'MAP, la Météo Aéronautique d'un coup d'oeil ! - Copyright ORBIFLY Décembre 2007 - Disclaimer

ORBIFLY MET'MAP TEAM :

Programmation & Développement : Alexandra Zaïnal
Sur une idée originale de : Baudouin d'Aumeries
Assistance à la programmation : Marc-Olivier Méhu
Soutien technique & logistique : Manuel Goepfert

Contact : metmap@orbifly.com




SOURCES & CREDITS :

   NOAA